EZY96LT LTFE-EGGP
Flight info
| Callsign | EZY96LT |
|---|---|
| Flight time | 4h 11m |
| Altitude | 34000 |
| Route | AKBUK G80 OKESA UG80 IMR UN127 RIKSO DCT EVIVI DCT OKANA DCT BGD DCT NIVIS DCT BABIT DCT ARSIN DCT BUDEX DCT IPDUL DCT RAPET DCT MASEK DCT RAVLO Y70 BATLI UY250 RIMTO DCT POL |
| Aircraft | A320/M-SDE2E3FGHIJ1RWXYZ/LB1 |
Departure
| Time | 2026-05-08 15:55 |
|---|---|
| Airport | Milas Bodrum International Airport (LTFE) |
Arrival
| Time | 2026-05-08 20:06 |
|---|---|
| Airport | Liverpool John Lennon Airport (EGGP) |
| Time | Latitude | Longitude | Altitude | Speed | Heading |
|---|---|---|---|---|---|
| 2026-05-08 15:45 | 37.24434 | 27.67587 | 30 ft | 0 kts | 197° |
| 2026-05-08 15:46 | 37.24441 | 27.67590 | 30 ft | 4 kts | 197° |
| 2026-05-08 15:47 | 37.24467 | 27.67599 | 30 ft | 4 kts | 197° |
| 2026-05-08 15:47 | 37.24492 | 27.67610 | 30 ft | 4 kts | 201° |
| 2026-05-08 15:47 | 37.24516 | 27.67623 | 30 ft | 2 kts | 206° |
| 2026-05-08 15:47 | 37.24522 | 27.67627 | 30 ft | 0 kts | 206° |
| 2026-05-08 15:49 | 37.24515 | 27.67620 | 30 ft | 2 kts | 221° |
| 2026-05-08 15:49 | 37.24514 | 27.67607 | 30 ft | 1 kts | 267° |
| 2026-05-08 15:49 | 37.24523 | 27.67595 | 30 ft | 6 kts | 327° |
| 2026-05-08 15:50 | 37.24558 | 27.67630 | 30 ft | 6 kts | 47° |
| 2026-05-08 15:50 | 37.24586 | 27.67654 | 31 ft | 3 kts | 25° |
| 2026-05-08 15:50 | 37.24604 | 27.67662 | 31 ft | 5 kts | 21° |
| 2026-05-08 15:50 | 37.24642 | 27.67697 | 32 ft | 9 kts | 58° |
| 2026-05-08 15:51 | 37.24637 | 27.67790 | 32 ft | 11 kts | 109° |
| 2026-05-08 15:51 | 37.24617 | 27.67880 | 31 ft | 10 kts | 105° |
| 2026-05-08 15:51 | 37.24596 | 27.67965 | 30 ft | 10 kts | 105° |
| 2026-05-08 15:51 | 37.24580 | 27.68043 | 29 ft | 8 kts | 100° |
| 2026-05-08 15:52 | 37.24603 | 27.68094 | 29 ft | 6 kts | 35° |
| 2026-05-08 15:52 | 37.24635 | 27.68113 | 29 ft | 4 kts | 18° |
| 2026-05-08 15:52 | 37.24673 | 27.68126 | 29 ft | 9 kts | 15° |
| 2026-05-08 15:52 | 37.24728 | 27.68125 | 29 ft | 7 kts | 319° |
| 2026-05-08 15:53 | 37.24743 | 27.68084 | 30 ft | 4 kts | 286° |
| 2026-05-08 15:53 | 37.24747 | 27.68068 | 30 ft | 0 kts | 286° |
| 2026-05-08 15:54 | 37.24760 | 27.68011 | 31 ft | 30 kts | 287° |
| 2026-05-08 15:54 | 37.24893 | 27.67455 | 32 ft | 99 kts | 287° |
| 2026-05-08 15:54 | 37.25146 | 27.66395 | 30 ft | 152 kts | 287° |
| 2026-05-08 15:54 | 37.25476 | 27.64989 | 309 ft | 172 kts | 286° |
| 2026-05-08 15:55 | 37.25809 | 27.63536 | 981 ft | 174 kts | 285° |
| 2026-05-08 15:55 | 37.26444 | 27.60443 | 1745 ft | 202 kts | 283° |
| 2026-05-08 15:55 | 37.26796 | 27.58637 | 1981 ft | 222 kts | 283° |
| 2026-05-08 15:56 | 37.27184 | 27.56650 | 2231 ft | 247 kts | 283° |
| 2026-05-08 15:56 | 37.27609 | 27.54482 | 2729 ft | 261 kts | 283° |
| 2026-05-08 15:56 | 37.27899 | 27.53006 | 3228 ft | 265 kts | 283° |
| 2026-05-08 15:56 | 37.28496 | 27.49980 | 4292 ft | 269 kts | 283° |
| 2026-05-08 15:57 | 37.28795 | 27.48470 | 4836 ft | 270 kts | 282° |
| 2026-05-08 15:57 | 37.29288 | 27.46183 | 5638 ft | 273 kts | 289° |
| 2026-05-08 15:57 | 37.30266 | 27.44135 | 6432 ft | 278 kts | 310° |
| 2026-05-08 15:57 | 37.31798 | 27.42642 | 7221 ft | 283 kts | 331° |
| 2026-05-08 15:58 | 37.33695 | 27.41943 | 7994 ft | 289 kts | 352° |
| 2026-05-08 15:58 | 37.35707 | 27.42194 | 8768 ft | 296 kts | 14° |
| 2026-05-08 15:58 | 37.37546 | 27.43410 | 9516 ft | 304 kts | 33° |
| 2026-05-08 15:58 | 37.39189 | 27.45110 | 10229 ft | 308 kts | 39° |
| 2026-05-08 15:59 | 37.40884 | 27.46852 | 10518 ft | 323 kts | 27° |
| 2026-05-08 15:59 | 37.42991 | 27.47991 | 10659 ft | 338 kts | 9° |
| 2026-05-08 15:59 | 37.45336 | 27.48242 | 11017 ft | 340 kts | 351° |
| 2026-05-08 15:59 | 37.47622 | 27.47592 | 11560 ft | 337 kts | 334° |
| 2026-05-08 16:00 | 37.49711 | 27.46263 | 12178 ft | 337 kts | 328° |
| 2026-05-08 16:00 | 37.51811 | 27.44919 | 12811 ft | 340 kts | 330° |
| 2026-05-08 16:00 | 37.53968 | 27.43650 | 13431 ft | 344 kts | 332° |
| 2026-05-08 16:00 | 37.56160 | 27.42416 | 14042 ft | 347 kts | 332° |
| 2026-05-08 16:01 | 37.58373 | 27.41187 | 14590 ft | 349 kts | 332° |
| 2026-05-08 16:01 | 37.60598 | 27.39944 | 15138 ft | 351 kts | 332° |
| 2026-05-08 16:01 | 37.62835 | 27.38680 | 15683 ft | 353 kts | 332° |
| 2026-05-08 16:01 | 37.65087 | 27.37417 | 16223 ft | 356 kts | 333° |
| 2026-05-08 16:02 | 37.67364 | 27.36168 | 16752 ft | 358 kts | 333° |
| 2026-05-08 16:02 | 37.69662 | 27.34921 | 17296 ft | 361 kts | 333° |
| 2026-05-08 16:02 | 37.71975 | 27.33670 | 17837 ft | 363 kts | 333° |
| 2026-05-08 16:02 | 37.74300 | 27.32407 | 18374 ft | 365 kts | 333° |
| 2026-05-08 16:03 | 37.76643 | 27.31131 | 18847 ft | 367 kts | 333° |
| 2026-05-08 16:03 | 37.78994 | 27.29849 | 19321 ft | 369 kts | 333° |
| 2026-05-08 16:03 | 37.81352 | 27.28561 | 19791 ft | 370 kts | 333° |
| 2026-05-08 16:03 | 37.83719 | 27.27264 | 20243 ft | 371 kts | 333° |
| 2026-05-08 16:04 | 37.86094 | 27.25960 | 20688 ft | 373 kts | 333° |
| 2026-05-08 16:04 | 37.88479 | 27.24652 | 21126 ft | 374 kts | 333° |
| 2026-05-08 16:04 | 37.90876 | 27.23338 | 21554 ft | 376 kts | 333° |
| 2026-05-08 16:04 | 37.93282 | 27.22020 | 21989 ft | 377 kts | 333° |
| 2026-05-08 16:05 | 37.95695 | 27.20694 | 22411 ft | 379 kts | 332° |
| 2026-05-08 16:05 | 37.98118 | 27.19358 | 22821 ft | 381 kts | 332° |
| 2026-05-08 16:05 | 38.00549 | 27.18013 | 23214 ft | 382 kts | 333° |
| 2026-05-08 16:05 | 38.02962 | 27.16679 | 23601 ft | 384 kts | 332° |
| 2026-05-08 16:06 | 38.05414 | 27.15321 | 23946 ft | 385 kts | 332° |
| 2026-05-08 16:06 | 38.07907 | 27.13941 | 24274 ft | 387 kts | 332° |
| 2026-05-08 16:06 | 38.10345 | 27.12594 | 24570 ft | 388 kts | 332° |
| 2026-05-08 16:06 | 38.12826 | 27.11226 | 24868 ft | 390 kts | 332° |
| 2026-05-08 16:07 | 38.15325 | 27.09843 | 25158 ft | 392 kts | 332° |
| 2026-05-08 16:07 | 38.17828 | 27.08453 | 25467 ft | 394 kts | 332° |
| 2026-05-08 16:07 | 38.20348 | 27.07056 | 25758 ft | 396 kts | 332° |
| 2026-05-08 16:07 | 38.22878 | 27.05653 | 26034 ft | 398 kts | 332° |
| 2026-05-08 16:08 | 38.25420 | 27.04245 | 26316 ft | 400 kts | 332° |
| 2026-05-08 16:08 | 38.27976 | 27.02827 | 26598 ft | 401 kts | 331° |
| 2026-05-08 16:08 | 38.30519 | 27.01357 | 26859 ft | 401 kts | 327° |
| 2026-05-08 16:08 | 38.32855 | 26.99458 | 27113 ft | 397 kts | 318° |
| 2026-05-08 16:09 | 38.34958 | 26.97184 | 27400 ft | 397 kts | 315° |
| 2026-05-08 16:09 | 38.37049 | 26.94871 | 27702 ft | 399 kts | 315° |
| 2026-05-08 16:09 | 38.39151 | 26.92554 | 28000 ft | 400 kts | 315° |
| 2026-05-08 16:09 | 38.41263 | 26.90226 | 28288 ft | 402 kts | 315° |
| 2026-05-08 16:10 | 38.43380 | 26.87887 | 28565 ft | 403 kts | 315° |
| 2026-05-08 16:10 | 38.45504 | 26.85538 | 28828 ft | 405 kts | 315° |
| 2026-05-08 16:10 | 38.47634 | 26.83177 | 29083 ft | 406 kts | 315° |
| 2026-05-08 16:10 | 38.49770 | 26.80807 | 29318 ft | 408 kts | 315° |
| 2026-05-08 16:11 | 38.51915 | 26.78425 | 29572 ft | 409 kts | 315° |
| 2026-05-08 16:11 | 38.54064 | 26.76038 | 29828 ft | 410 kts | 315° |
| 2026-05-08 16:11 | 38.56221 | 26.73643 | 30059 ft | 412 kts | 315° |
| 2026-05-08 16:11 | 38.58381 | 26.71241 | 30341 ft | 411 kts | 314° |
| 2026-05-08 16:12 | 38.60532 | 26.68845 | 30627 ft | 410 kts | 314° |
| 2026-05-08 16:12 | 38.62681 | 26.66451 | 30875 ft | 410 kts | 314° |
| 2026-05-08 16:12 | 38.64832 | 26.64052 | 31125 ft | 410 kts | 314° |
| 2026-05-08 16:12 | 38.66980 | 26.61655 | 31367 ft | 410 kts | 314° |
| 2026-05-08 16:13 | 38.69126 | 26.59259 | 31622 ft | 410 kts | 314° |
| 2026-05-08 16:13 | 38.71273 | 26.56863 | 31872 ft | 409 kts | 314° |
| 2026-05-08 16:13 | 38.73419 | 26.54465 | 32121 ft | 409 kts | 314° |
| 2026-05-08 16:13 | 38.75532 | 26.52102 | 32364 ft | 409 kts | 314° |
| 2026-05-08 16:14 | 38.77674 | 26.49700 | 32611 ft | 409 kts | 313° |
| 2026-05-08 16:14 | 38.79812 | 26.47293 | 32858 ft | 409 kts | 313° |
| 2026-05-08 16:14 | 38.81946 | 26.44888 | 33106 ft | 409 kts | 313° |
| 2026-05-08 16:14 | 38.84084 | 26.42487 | 33337 ft | 409 kts | 314° |
| 2026-05-08 16:15 | 38.86235 | 26.40098 | 33579 ft | 409 kts | 314° |
| 2026-05-08 16:15 | 38.88393 | 26.37724 | 33822 ft | 409 kts | 314° |
| 2026-05-08 16:15 | 38.90555 | 26.35355 | 34033 ft | 409 kts | 314° |
| 2026-05-08 16:15 | 38.92715 | 26.32989 | 34088 ft | 406 kts | 314° |
| 2026-05-08 16:16 | 38.96992 | 26.28282 | 34089 ft | 404 kts | 314° |
| 2026-05-08 16:16 | 39.01250 | 26.23562 | 34087 ft | 404 kts | 314° |
| 2026-05-08 16:17 | 39.04789 | 26.19642 | 34087 ft | 404 kts | 314° |
| 2026-05-08 16:17 | 39.09739 | 26.14147 | 34086 ft | 404 kts | 314° |
| 2026-05-08 16:18 | 39.13993 | 26.09411 | 34082 ft | 404 kts | 314° |
| 2026-05-08 16:18 | 39.18254 | 26.04662 | 34089 ft | 405 kts | 314° |
| 2026-05-08 16:19 | 39.22512 | 25.99911 | 34086 ft | 405 kts | 313° |
| 2026-05-08 16:19 | 39.26768 | 25.95150 | 34083 ft | 405 kts | 313° |
| 2026-05-08 16:20 | 39.31032 | 25.90379 | 34075 ft | 406 kts | 313° |
| 2026-05-08 16:20 | 39.35297 | 25.85591 | 34073 ft | 406 kts | 313° |
| 2026-05-08 16:21 | 39.39564 | 25.80792 | 34073 ft | 407 kts | 313° |
| 2026-05-08 16:21 | 39.43840 | 25.75980 | 34067 ft | 408 kts | 314° |
| 2026-05-08 16:22 | 39.48121 | 25.71153 | 34070 ft | 408 kts | 313° |
| 2026-05-08 16:22 | 39.52375 | 25.66348 | 34063 ft | 409 kts | 313° |
| 2026-05-08 16:23 | 39.56659 | 25.61496 | 34070 ft | 409 kts | 313° |
| 2026-05-08 16:23 | 39.60952 | 25.56640 | 34064 ft | 410 kts | 314° |
| 2026-05-08 16:24 | 39.65252 | 25.51768 | 34067 ft | 410 kts | 313° |
| 2026-05-08 16:24 | 39.69549 | 25.46884 | 34058 ft | 411 kts | 314° |
| 2026-05-08 16:25 | 39.73852 | 25.41986 | 34057 ft | 411 kts | 313° |
| 2026-05-08 16:25 | 39.78151 | 25.37074 | 34053 ft | 412 kts | 314° |
| 2026-05-08 16:26 | 39.82458 | 25.32147 | 34048 ft | 412 kts | 313° |
| 2026-05-08 16:26 | 39.86769 | 25.27211 | 34047 ft | 413 kts | 314° |
| 2026-05-08 16:27 | 39.91055 | 25.22292 | 34048 ft | 414 kts | 314° |
| 2026-05-08 16:27 | 39.95383 | 25.17335 | 34048 ft | 415 kts | 314° |
| 2026-05-08 16:28 | 39.99709 | 25.12360 | 34050 ft | 415 kts | 314° |
| 2026-05-08 16:28 | 40.04035 | 25.07357 | 34056 ft | 416 kts | 314° |
| 2026-05-08 16:29 | 40.08364 | 25.02344 | 34054 ft | 416 kts | 314° |
| 2026-05-08 16:29 | 40.12708 | 24.97326 | 34059 ft | 417 kts | 314° |
| 2026-05-08 16:30 | 40.17047 | 24.92293 | 34059 ft | 417 kts | 314° |
| 2026-05-08 16:30 | 40.21389 | 24.87248 | 34064 ft | 418 kts | 314° |
| 2026-05-08 16:31 | 40.25710 | 24.82224 | 34064 ft | 419 kts | 314° |
| 2026-05-08 16:31 | 40.30067 | 24.77145 | 34067 ft | 420 kts | 314° |
| 2026-05-08 16:32 | 40.34432 | 24.72049 | 34063 ft | 421 kts | 314° |
| 2026-05-08 16:32 | 40.38802 | 24.66937 | 34071 ft | 421 kts | 314° |
| 2026-05-08 16:33 | 40.43177 | 24.61814 | 34066 ft | 422 kts | 314° |
| 2026-05-08 16:33 | 40.47560 | 24.56672 | 34070 ft | 423 kts | 314° |
| 2026-05-08 16:34 | 40.51945 | 24.51521 | 34073 ft | 423 kts | 314° |
| 2026-05-08 16:34 | 40.56305 | 24.46387 | 34073 ft | 424 kts | 314° |
| 2026-05-08 16:35 | 40.60691 | 24.41208 | 34071 ft | 424 kts | 314° |
| 2026-05-08 16:35 | 40.65079 | 24.36013 | 34072 ft | 424 kts | 314° |
| 2026-05-08 16:36 | 40.69469 | 24.30813 | 34072 ft | 425 kts | 314° |
| 2026-05-08 16:36 | 40.73861 | 24.25601 | 34077 ft | 425 kts | 314° |
| 2026-05-08 16:37 | 40.78247 | 24.20374 | 34081 ft | 425 kts | 314° |
| 2026-05-08 16:37 | 40.82634 | 24.15150 | 34085 ft | 425 kts | 314° |
| 2026-05-08 16:38 | 40.86999 | 24.09951 | 34083 ft | 426 kts | 314° |
| 2026-05-08 16:38 | 40.91396 | 24.04704 | 34084 ft | 426 kts | 314° |
| 2026-05-08 16:39 | 40.95791 | 23.99434 | 34089 ft | 426 kts | 314° |
| 2026-05-08 16:39 | 41.00183 | 23.94155 | 34093 ft | 426 kts | 314° |
| 2026-05-08 16:40 | 41.04573 | 23.88880 | 34100 ft | 426 kts | 315° |
| 2026-05-08 16:40 | 41.08957 | 23.83595 | 34103 ft | 426 kts | 315° |
| 2026-05-08 16:41 | 41.13334 | 23.78307 | 34100 ft | 425 kts | 315° |
| 2026-05-08 16:42 | 41.19883 | 23.70377 | 34098 ft | 425 kts | 315° |
| 2026-05-08 16:42 | 41.24243 | 23.65093 | 34094 ft | 424 kts | 315° |
| 2026-05-08 16:43 | 41.28598 | 23.59806 | 34087 ft | 424 kts | 315° |
| 2026-05-08 16:43 | 41.32918 | 23.54540 | 34086 ft | 424 kts | 315° |
| 2026-05-08 16:44 | 41.37269 | 23.49233 | 34083 ft | 424 kts | 315° |
| 2026-05-08 16:44 | 41.41965 | 23.44469 | 34086 ft | 429 kts | 329° |
| 2026-05-08 16:45 | 41.47332 | 23.40965 | 34082 ft | 430 kts | 331° |
| 2026-05-08 16:45 | 41.52715 | 23.37465 | 34078 ft | 430 kts | 331° |
| 2026-05-08 16:46 | 41.58097 | 23.33945 | 34076 ft | 431 kts | 331° |
| 2026-05-08 16:46 | 41.63478 | 23.30422 | 34078 ft | 431 kts | 331° |
| 2026-05-08 16:47 | 41.68855 | 23.26889 | 34072 ft | 431 kts | 331° |
| 2026-05-08 16:47 | 41.74193 | 23.23380 | 34072 ft | 430 kts | 331° |
| 2026-05-08 16:48 | 41.79565 | 23.19842 | 34074 ft | 430 kts | 331° |
| 2026-05-08 16:48 | 41.84939 | 23.16300 | 34072 ft | 431 kts | 330° |
| 2026-05-08 16:49 | 41.90318 | 23.12752 | 34062 ft | 431 kts | 330° |
| 2026-05-08 16:49 | 41.95703 | 23.09190 | 34065 ft | 431 kts | 330° |
| 2026-05-08 16:50 | 42.01086 | 23.05624 | 34068 ft | 431 kts | 330° |
| 2026-05-08 16:50 | 42.06463 | 23.02044 | 34068 ft | 431 kts | 330° |
| 2026-05-08 16:51 | 42.11798 | 22.98489 | 34067 ft | 431 kts | 330° |
| 2026-05-08 16:51 | 42.17174 | 22.94905 | 34071 ft | 431 kts | 330° |
| 2026-05-08 16:52 | 42.22542 | 22.91323 | 34071 ft | 431 kts | 330° |
| 2026-05-08 16:52 | 42.27905 | 22.87729 | 34074 ft | 430 kts | 330° |
| 2026-05-08 16:53 | 42.35944 | 22.82330 | 34068 ft | 430 kts | 330° |
| 2026-05-08 16:53 | 42.41298 | 22.78729 | 34068 ft | 430 kts | 330° |
| 2026-05-08 16:54 | 42.46651 | 22.75124 | 34066 ft | 429 kts | 330° |
| 2026-05-08 16:54 | 42.51998 | 22.71511 | 34066 ft | 429 kts | 330° |
| 2026-05-08 16:55 | 42.57301 | 22.67922 | 34063 ft | 429 kts | 329° |
| 2026-05-08 16:55 | 42.62633 | 22.64310 | 34063 ft | 428 kts | 330° |
| 2026-05-08 16:56 | 42.67951 | 22.60701 | 34065 ft | 427 kts | 329° |
| 2026-05-08 16:56 | 42.72399 | 22.57675 | 34068 ft | 426 kts | 329° |
| 2026-05-08 16:57 | 42.77660 | 22.54087 | 34069 ft | 426 kts | 329° |
| 2026-05-08 16:57 | 42.82957 | 22.50468 | 34057 ft | 426 kts | 329° |
| 2026-05-08 16:58 | 42.87801 | 22.45964 | 34044 ft | 421 kts | 319° |
| 2026-05-08 16:58 | 42.92427 | 22.41044 | 34041 ft | 422 kts | 319° |
| 2026-05-08 16:59 | 42.97064 | 22.36123 | 34044 ft | 422 kts | 319° |
| 2026-05-08 16:59 | 43.01699 | 22.31183 | 34045 ft | 423 kts | 319° |
| 2026-05-08 17:00 | 43.06334 | 22.26234 | 34034 ft | 423 kts | 319° |
| 2026-05-08 17:00 | 43.10967 | 22.21276 | 34032 ft | 423 kts | 319° |
| 2026-05-08 17:01 | 43.15604 | 22.16304 | 34027 ft | 424 kts | 319° |
| 2026-05-08 17:01 | 43.20209 | 22.11351 | 34026 ft | 424 kts | 319° |
| 2026-05-08 17:02 | 43.24845 | 22.06356 | 34023 ft | 424 kts | 319° |
| 2026-05-08 17:02 | 43.29484 | 22.01366 | 34016 ft | 424 kts | 319° |
| 2026-05-08 17:03 | 43.34127 | 21.96355 | 34018 ft | 425 kts | 318° |
| 2026-05-08 17:03 | 43.38768 | 21.91317 | 34023 ft | 425 kts | 318° |
| 2026-05-08 17:04 | 43.43410 | 21.86279 | 34021 ft | 425 kts | 318° |
| 2026-05-08 17:04 | 43.48053 | 21.81241 | 34024 ft | 425 kts | 318° |
| 2026-05-08 17:05 | 43.52691 | 21.76196 | 34023 ft | 425 kts | 318° |
| 2026-05-08 17:05 | 43.57328 | 21.71130 | 34021 ft | 425 kts | 318° |
| 2026-05-08 17:06 | 43.61936 | 21.66094 | 34019 ft | 426 kts | 318° |
| 2026-05-08 17:06 | 43.66577 | 21.61002 | 34018 ft | 426 kts | 318° |
| 2026-05-08 17:07 | 43.71222 | 21.55892 | 34018 ft | 427 kts | 318° |
| 2026-05-08 17:07 | 43.75874 | 21.50773 | 34015 ft | 427 kts | 318° |
| 2026-05-08 17:08 | 43.80522 | 21.45637 | 34018 ft | 428 kts | 318° |
| 2026-05-08 17:08 | 43.85184 | 21.40494 | 34012 ft | 428 kts | 318° |
| 2026-05-08 17:09 | 43.89843 | 21.35346 | 34013 ft | 429 kts | 318° |
| 2026-05-08 17:09 | 43.94503 | 21.30178 | 34011 ft | 429 kts | 318° |
| 2026-05-08 17:10 | 43.99155 | 21.24998 | 34008 ft | 429 kts | 318° |
| 2026-05-08 17:10 | 44.03808 | 21.19813 | 34004 ft | 429 kts | 318° |
| 2026-05-08 17:11 | 44.08433 | 21.14655 | 34004 ft | 429 kts | 318° |
| 2026-05-08 17:11 | 44.13084 | 21.09444 | 34004 ft | 430 kts | 318° |
| 2026-05-08 17:12 | 44.17743 | 21.04223 | 34006 ft | 430 kts | 318° |
| 2026-05-08 17:12 | 44.22402 | 20.98996 | 34008 ft | 430 kts | 318° |
| 2026-05-08 17:13 | 44.27060 | 20.93766 | 34006 ft | 430 kts | 318° |
| 2026-05-08 17:13 | 44.31705 | 20.88516 | 34011 ft | 429 kts | 318° |
| 2026-05-08 17:14 | 44.36342 | 20.83262 | 34011 ft | 429 kts | 318° |
| 2026-05-08 17:14 | 44.40979 | 20.78004 | 34008 ft | 429 kts | 317° |
| 2026-05-08 17:15 | 44.45586 | 20.72780 | 34008 ft | 429 kts | 318° |
| 2026-05-08 17:15 | 44.50219 | 20.67510 | 34011 ft | 429 kts | 317° |
| 2026-05-08 17:16 | 44.54856 | 20.62233 | 34011 ft | 429 kts | 317° |
| 2026-05-08 17:16 | 44.59485 | 20.56942 | 34011 ft | 429 kts | 317° |
| 2026-05-08 17:17 | 44.64109 | 20.51642 | 34011 ft | 429 kts | 317° |
| 2026-05-08 17:17 | 44.68736 | 20.46341 | 34011 ft | 429 kts | 317° |
| 2026-05-08 17:18 | 44.73358 | 20.41035 | 34011 ft | 429 kts | 317° |
| 2026-05-08 17:18 | 44.77969 | 20.35716 | 34017 ft | 429 kts | 317° |
| 2026-05-08 17:19 | 44.82575 | 20.30389 | 34016 ft | 428 kts | 317° |
| 2026-05-08 17:19 | 44.87125 | 20.24979 | 34016 ft | 428 kts | 316° |
| 2026-05-08 17:20 | 44.91601 | 20.19549 | 34018 ft | 427 kts | 316° |
| 2026-05-08 17:20 | 44.96117 | 20.14089 | 34004 ft | 427 kts | 316° |
| 2026-05-08 17:21 | 45.00633 | 20.08635 | 34012 ft | 427 kts | 316° |
| 2026-05-08 17:21 | 45.05152 | 20.03177 | 34013 ft | 427 kts | 316° |
| 2026-05-08 17:22 | 45.09668 | 19.97719 | 34018 ft | 427 kts | 315° |
| 2026-05-08 17:22 | 45.14175 | 19.92238 | 34018 ft | 427 kts | 315° |
| 2026-05-08 17:23 | 45.18679 | 19.86750 | 34015 ft | 427 kts | 315° |
| 2026-05-08 17:23 | 45.23186 | 19.81255 | 34031 ft | 427 kts | 315° |
| 2026-05-08 17:24 | 45.27657 | 19.75771 | 34024 ft | 427 kts | 315° |
| 2026-05-08 17:24 | 45.32126 | 19.70200 | 34018 ft | 427 kts | 314° |
| 2026-05-08 17:25 | 45.36584 | 19.64612 | 33995 ft | 427 kts | 314° |
| 2026-05-08 17:25 | 45.41045 | 19.59022 | 33999 ft | 427 kts | 314° |
| 2026-05-08 17:26 | 45.45505 | 19.53424 | 34008 ft | 427 kts | 314° |
| 2026-05-08 17:26 | 45.49969 | 19.47825 | 34012 ft | 428 kts | 314° |
| 2026-05-08 17:27 | 45.54431 | 19.42213 | 34011 ft | 428 kts | 314° |
| 2026-05-08 17:27 | 45.58890 | 19.36587 | 34024 ft | 428 kts | 314° |
| 2026-05-08 17:28 | 45.63343 | 19.30943 | 34017 ft | 428 kts | 314° |
| 2026-05-08 17:28 | 45.67804 | 19.25289 | 34017 ft | 429 kts | 314° |
| 2026-05-08 17:29 | 45.72267 | 19.19628 | 34027 ft | 429 kts | 314° |
| 2026-05-08 17:29 | 45.76726 | 19.13955 | 34026 ft | 429 kts | 313° |
| 2026-05-08 17:30 | 45.81179 | 19.08265 | 34025 ft | 429 kts | 313° |
| 2026-05-08 17:30 | 45.85599 | 19.02610 | 34030 ft | 428 kts | 313° |
| 2026-05-08 17:31 | 45.90041 | 18.96911 | 34031 ft | 428 kts | 313° |
| 2026-05-08 17:31 | 45.94486 | 18.91209 | 34029 ft | 428 kts | 313° |
| 2026-05-08 17:32 | 45.98946 | 18.85525 | 34041 ft | 428 kts | 313° |
| 2026-05-08 17:32 | 46.03400 | 18.79843 | 34044 ft | 428 kts | 313° |
| 2026-05-08 17:33 | 46.07812 | 18.74176 | 34046 ft | 427 kts | 313° |
| 2026-05-08 17:33 | 46.12243 | 18.68470 | 34044 ft | 427 kts | 313° |
| 2026-05-08 17:34 | 46.16677 | 18.62762 | 34037 ft | 427 kts | 313° |
| 2026-05-08 17:34 | 46.21105 | 18.57042 | 34038 ft | 427 kts | 313° |
| 2026-05-08 17:35 | 46.25531 | 18.51319 | 34037 ft | 427 kts | 313° |
| 2026-05-08 17:35 | 46.29952 | 18.45587 | 34036 ft | 427 kts | 313° |
| 2026-05-08 17:36 | 46.34369 | 18.39842 | 34032 ft | 427 kts | 313° |
| 2026-05-08 17:36 | 46.38780 | 18.34089 | 34034 ft | 427 kts | 313° |
| 2026-05-08 17:37 | 46.43191 | 18.28323 | 34042 ft | 427 kts | 313° |
| 2026-05-08 17:37 | 46.47570 | 18.22600 | 34041 ft | 427 kts | 313° |
| 2026-05-08 17:38 | 46.51976 | 18.16821 | 34039 ft | 427 kts | 313° |
| 2026-05-08 17:38 | 46.56381 | 18.11041 | 34036 ft | 427 kts | 313° |
| 2026-05-08 17:39 | 46.60781 | 18.05243 | 34033 ft | 427 kts | 313° |
| 2026-05-08 17:39 | 46.65181 | 17.99425 | 34034 ft | 428 kts | 312° |
| 2026-05-08 17:40 | 46.69582 | 17.93590 | 34034 ft | 428 kts | 312° |
| 2026-05-08 17:40 | 46.73989 | 17.87739 | 34038 ft | 429 kts | 312° |
| 2026-05-08 17:41 | 46.78395 | 17.81881 | 34039 ft | 429 kts | 312° |
| 2026-05-08 17:41 | 46.82795 | 17.76012 | 34053 ft | 428 kts | 312° |
| 2026-05-08 17:42 | 46.87184 | 17.70139 | 34059 ft | 427 kts | 312° |
| 2026-05-08 17:42 | 46.91566 | 17.64273 | 34068 ft | 427 kts | 312° |
| 2026-05-08 17:43 | 46.95939 | 17.58419 | 34077 ft | 425 kts | 312° |
| 2026-05-08 17:43 | 47.00290 | 17.52565 | 34082 ft | 424 kts | 311° |
| 2026-05-08 17:44 | 47.04628 | 17.46713 | 34079 ft | 423 kts | 311° |
| 2026-05-08 17:44 | 47.08954 | 17.40865 | 34075 ft | 423 kts | 311° |
| 2026-05-08 17:45 | 47.13274 | 17.35018 | 34074 ft | 422 kts | 311° |
| 2026-05-08 17:45 | 47.17587 | 17.29158 | 34068 ft | 422 kts | 311° |
| 2026-05-08 17:46 | 47.21894 | 17.23291 | 34066 ft | 422 kts | 311° |
| 2026-05-08 17:46 | 47.26202 | 17.17416 | 34064 ft | 422 kts | 311° |
| 2026-05-08 17:47 | 47.30474 | 17.11577 | 34065 ft | 422 kts | 311° |
| 2026-05-08 17:47 | 47.34077 | 17.06648 | 34066 ft | 422 kts | 311° |
| 2026-05-08 17:48 | 47.39062 | 16.99808 | 34072 ft | 421 kts | 311° |
| 2026-05-08 17:48 | 47.43338 | 16.93906 | 34077 ft | 420 kts | 311° |
| 2026-05-08 17:49 | 47.47604 | 16.88003 | 34079 ft | 420 kts | 311° |
| 2026-05-08 17:49 | 47.51862 | 16.82101 | 34076 ft | 419 kts | 311° |
| 2026-05-08 17:50 | 47.56116 | 16.76207 | 34078 ft | 419 kts | 310° |
| 2026-05-08 17:50 | 47.60006 | 16.69891 | 34080 ft | 414 kts | 305° |
| 2026-05-08 17:51 | 47.63813 | 16.63483 | 34076 ft | 414 kts | 305° |
| 2026-05-08 17:51 | 47.67619 | 16.57067 | 34074 ft | 414 kts | 305° |
| 2026-05-08 17:52 | 47.71427 | 16.50654 | 34074 ft | 414 kts | 305° |
| 2026-05-08 17:53 | 47.77128 | 16.41016 | 34074 ft | 414 kts | 304° |
| 2026-05-08 17:53 | 47.80273 | 16.35664 | 34078 ft | 413 kts | 304° |
| 2026-05-08 17:54 | 47.84670 | 16.28184 | 34092 ft | 413 kts | 304° |
| 2026-05-08 17:54 | 47.88450 | 16.21757 | 34092 ft | 412 kts | 304° |
| 2026-05-08 17:55 | 47.91580 | 16.16413 | 34086 ft | 412 kts | 304° |
| 2026-05-08 17:55 | 47.95335 | 16.09975 | 34089 ft | 411 kts | 304° |
| 2026-05-08 17:56 | 47.99082 | 16.03533 | 34079 ft | 411 kts | 304° |
| 2026-05-08 17:56 | 48.02825 | 15.97083 | 34077 ft | 411 kts | 304° |
| 2026-05-08 17:57 | 48.06564 | 15.90635 | 34076 ft | 411 kts | 304° |
| 2026-05-08 17:57 | 48.10301 | 15.84173 | 34076 ft | 410 kts | 304° |
| 2026-05-08 17:58 | 48.14031 | 15.77699 | 34068 ft | 411 kts | 304° |
| 2026-05-08 17:58 | 48.17761 | 15.71210 | 34067 ft | 411 kts | 304° |
| 2026-05-08 17:59 | 48.21497 | 15.64713 | 34071 ft | 412 kts | 304° |
| 2026-05-08 17:59 | 48.25230 | 15.58198 | 34070 ft | 412 kts | 304° |
| 2026-05-08 18:00 | 48.28930 | 15.51711 | 34067 ft | 412 kts | 304° |
| 2026-05-08 18:00 | 48.34532 | 15.41883 | 34070 ft | 413 kts | 303° |
| 2026-05-08 18:01 | 48.38265 | 15.35311 | 34065 ft | 413 kts | 303° |
| 2026-05-08 18:01 | 48.41995 | 15.28724 | 34068 ft | 414 kts | 303° |
| 2026-05-08 18:02 | 48.45719 | 15.22122 | 34068 ft | 414 kts | 303° |
| 2026-05-08 18:02 | 48.49441 | 15.15506 | 34068 ft | 414 kts | 303° |
| 2026-05-08 18:03 | 48.53164 | 15.08886 | 34074 ft | 414 kts | 303° |
| 2026-05-08 18:03 | 48.56895 | 15.02252 | 34083 ft | 414 kts | 303° |
| 2026-05-08 18:04 | 48.60611 | 14.95605 | 34088 ft | 414 kts | 302° |
| 2026-05-08 18:04 | 48.64317 | 14.88941 | 34090 ft | 414 kts | 302° |
| 2026-05-08 18:05 | 48.68025 | 14.82274 | 34098 ft | 414 kts | 302° |
| 2026-05-08 18:05 | 48.71704 | 14.75647 | 34097 ft | 414 kts | 302° |
| 2026-05-08 18:06 | 48.75404 | 14.68980 | 34094 ft | 413 kts | 302° |
| 2026-05-08 18:06 | 48.79095 | 14.62303 | 34103 ft | 413 kts | 302° |
| 2026-05-08 18:07 | 48.82775 | 14.55622 | 34098 ft | 412 kts | 302° |
| 2026-05-08 18:07 | 48.86444 | 14.48936 | 34108 ft | 412 kts | 302° |
| 2026-05-08 18:08 | 48.90103 | 14.42256 | 34115 ft | 411 kts | 302° |
| 2026-05-08 18:08 | 48.93772 | 14.35584 | 34125 ft | 412 kts | 305° |
| 2026-05-08 18:09 | 48.98243 | 14.29902 | 34124 ft | 424 kts | 317° |
| 2026-05-08 18:09 | 49.03057 | 14.24729 | 34128 ft | 424 kts | 317° |
| 2026-05-08 18:10 | 49.07863 | 14.19538 | 34131 ft | 423 kts | 317° |
| 2026-05-08 18:10 | 49.12654 | 14.14330 | 34131 ft | 422 kts | 317° |
| 2026-05-08 18:11 | 49.17433 | 14.09109 | 34132 ft | 422 kts | 317° |
| 2026-05-08 18:11 | 49.22206 | 14.03888 | 34129 ft | 422 kts | 317° |
| 2026-05-08 18:12 | 49.26977 | 13.98662 | 34132 ft | 422 kts | 318° |
| 2026-05-08 18:12 | 49.31712 | 13.93463 | 34130 ft | 421 kts | 318° |
| 2026-05-08 18:13 | 49.36477 | 13.88228 | 34127 ft | 421 kts | 319° |
| 2026-05-08 18:13 | 49.41204 | 13.82922 | 34126 ft | 418 kts | 314° |
| 2026-05-08 18:14 | 49.45083 | 13.76429 | 34124 ft | 411 kts | 304° |
| 2026-05-08 18:14 | 49.48704 | 13.69613 | 34116 ft | 412 kts | 304° |
| 2026-05-08 18:15 | 49.52337 | 13.62790 | 34108 ft | 413 kts | 305° |
| 2026-05-08 18:15 | 49.55973 | 13.55938 | 34101 ft | 413 kts | 305° |
| 2026-05-08 18:16 | 49.59605 | 13.49059 | 34098 ft | 414 kts | 305° |
| 2026-05-08 18:16 | 49.63238 | 13.42150 | 34095 ft | 415 kts | 305° |
| 2026-05-08 18:17 | 49.66879 | 13.35219 | 34092 ft | 416 kts | 306° |
| 2026-05-08 18:17 | 49.70526 | 13.28266 | 34094 ft | 417 kts | 306° |
| 2026-05-08 18:18 | 49.74172 | 13.21291 | 34092 ft | 418 kts | 306° |
| 2026-05-08 18:18 | 49.77797 | 13.14331 | 34097 ft | 418 kts | 306° |
| 2026-05-08 18:19 | 49.81444 | 13.07309 | 34100 ft | 419 kts | 306° |
| 2026-05-08 18:19 | 49.85104 | 13.00269 | 34102 ft | 420 kts | 306° |
| 2026-05-08 18:20 | 49.88766 | 12.93198 | 34105 ft | 421 kts | 306° |
| 2026-05-08 18:20 | 49.92420 | 12.86101 | 34116 ft | 421 kts | 306° |
| 2026-05-08 18:21 | 49.96079 | 12.78981 | 34111 ft | 422 kts | 306° |
| 2026-05-08 18:21 | 49.99744 | 12.71840 | 34114 ft | 423 kts | 306° |
| 2026-05-08 18:22 | 50.03406 | 12.64680 | 34118 ft | 423 kts | 306° |
| 2026-05-08 18:22 | 50.07070 | 12.57498 | 34118 ft | 424 kts | 306° |
| 2026-05-08 18:23 | 50.10735 | 12.50303 | 34123 ft | 424 kts | 306° |
| 2026-05-08 18:23 | 50.14391 | 12.43090 | 34124 ft | 424 kts | 306° |
| 2026-05-08 18:24 | 50.17985 | 12.35806 | 34129 ft | 423 kts | 301° |
| 2026-05-08 18:24 | 50.20377 | 12.27574 | 34133 ft | 419 kts | 286° |
| 2026-05-08 18:25 | 50.22178 | 12.18919 | 34125 ft | 419 kts | 287° |
| 2026-05-08 18:25 | 50.23984 | 12.10253 | 34132 ft | 420 kts | 287° |
| 2026-05-08 18:26 | 50.25793 | 12.01584 | 34126 ft | 420 kts | 287° |
| 2026-05-08 18:26 | 50.27601 | 11.92903 | 34127 ft | 420 kts | 287° |
| 2026-05-08 18:27 | 50.29086 | 11.85681 | 34125 ft | 420 kts | 286° |
| 2026-05-08 18:27 | 50.31166 | 11.75511 | 34128 ft | 420 kts | 286° |
| 2026-05-08 18:28 | 50.32940 | 11.66802 | 34130 ft | 420 kts | 286° |
| 2026-05-08 18:28 | 50.34711 | 11.58092 | 34138 ft | 420 kts | 286° |
| 2026-05-08 18:29 | 50.36465 | 11.49437 | 34140 ft | 420 kts | 286° |
| 2026-05-08 18:29 | 50.38223 | 11.40723 | 34149 ft | 420 kts | 286° |
| 2026-05-08 18:30 | 50.39974 | 11.32000 | 34144 ft | 419 kts | 286° |
| 2026-05-08 18:30 | 50.41717 | 11.23279 | 34137 ft | 419 kts | 286° |
| 2026-05-08 18:31 | 50.43451 | 11.14553 | 34140 ft | 419 kts | 286° |
| 2026-05-08 18:31 | 50.45179 | 11.05825 | 34141 ft | 419 kts | 286° |
| 2026-05-08 18:32 | 50.46898 | 10.97091 | 34145 ft | 419 kts | 286° |
| 2026-05-08 18:32 | 50.48611 | 10.88365 | 34145 ft | 418 kts | 285° |
| 2026-05-08 18:33 | 50.50321 | 10.79625 | 34147 ft | 418 kts | 285° |
| 2026-05-08 18:33 | 50.52016 | 10.70892 | 34141 ft | 418 kts | 285° |
| 2026-05-08 18:34 | 50.53705 | 10.62148 | 34147 ft | 418 kts | 285° |
| 2026-05-08 18:34 | 50.55387 | 10.53406 | 34142 ft | 418 kts | 285° |
| 2026-05-08 18:35 | 50.57059 | 10.44654 | 34138 ft | 418 kts | 285° |
| 2026-05-08 18:35 | 50.58724 | 10.35900 | 34138 ft | 418 kts | 285° |
| 2026-05-08 18:36 | 50.60392 | 10.27149 | 34137 ft | 417 kts | 285° |
| 2026-05-08 18:36 | 50.62051 | 10.18391 | 34141 ft | 417 kts | 285° |
| 2026-05-08 18:37 | 50.63683 | 10.09688 | 34138 ft | 417 kts | 285° |
| 2026-05-08 18:37 | 50.65326 | 10.00920 | 34139 ft | 417 kts | 285° |
| 2026-05-08 18:38 | 50.66966 | 9.92155 | 34141 ft | 417 kts | 285° |
| 2026-05-08 18:38 | 50.68593 | 9.83383 | 34143 ft | 417 kts | 285° |
| 2026-05-08 18:39 | 50.70211 | 9.74609 | 34133 ft | 417 kts | 285° |
| 2026-05-08 18:39 | 50.71820 | 9.65820 | 34136 ft | 417 kts | 284° |
| 2026-05-08 18:40 | 50.73886 | 9.57296 | 34132 ft | 419 kts | 298° |
| 2026-05-08 18:40 | 50.76917 | 9.49438 | 34135 ft | 419 kts | 300° |
| 2026-05-08 18:41 | 50.79926 | 9.41555 | 34133 ft | 419 kts | 299° |
| 2026-05-08 18:41 | 50.82928 | 9.33660 | 34127 ft | 419 kts | 299° |
| 2026-05-08 18:42 | 50.85931 | 9.25759 | 34130 ft | 419 kts | 299° |
| 2026-05-08 18:42 | 50.88926 | 9.17845 | 34129 ft | 419 kts | 299° |
| 2026-05-08 18:43 | 50.91916 | 9.09932 | 34128 ft | 419 kts | 299° |
| 2026-05-08 18:43 | 50.94904 | 9.02001 | 34129 ft | 419 kts | 299° |
| 2026-05-08 18:44 | 50.97886 | 8.94064 | 34129 ft | 419 kts | 299° |
| 2026-05-08 18:44 | 51.00858 | 8.86116 | 34133 ft | 419 kts | 299° |
| 2026-05-08 18:45 | 51.03829 | 8.78154 | 34130 ft | 419 kts | 299° |
| 2026-05-08 18:45 | 51.06789 | 8.70188 | 34134 ft | 419 kts | 299° |
| 2026-05-08 18:46 | 51.09744 | 8.62214 | 34129 ft | 419 kts | 299° |
| 2026-05-08 18:46 | 51.12694 | 8.54225 | 34129 ft | 419 kts | 299° |
| 2026-05-08 18:47 | 51.15141 | 8.47579 | 34131 ft | 419 kts | 299° |
| 2026-05-08 18:47 | 51.18560 | 8.38272 | 34126 ft | 419 kts | 299° |
| 2026-05-08 18:48 | 51.21016 | 8.31559 | 34126 ft | 419 kts | 299° |
| 2026-05-08 18:48 | 51.23943 | 8.23532 | 34119 ft | 419 kts | 299° |
| 2026-05-08 18:49 | 51.26873 | 8.15501 | 34121 ft | 418 kts | 299° |
| 2026-05-08 18:49 | 51.29797 | 8.07461 | 34120 ft | 418 kts | 299° |
| 2026-05-08 18:50 | 51.32711 | 7.99406 | 34120 ft | 418 kts | 299° |
| 2026-05-08 18:50 | 51.35612 | 7.91347 | 34121 ft | 418 kts | 299° |
| 2026-05-08 18:51 | 51.38510 | 7.83270 | 34123 ft | 418 kts | 299° |
| 2026-05-08 18:51 | 51.41405 | 7.75186 | 34123 ft | 418 kts | 299° |
| 2026-05-08 18:52 | 51.44295 | 7.67090 | 34127 ft | 419 kts | 299° |
| 2026-05-08 18:52 | 51.47182 | 7.58985 | 34122 ft | 419 kts | 299° |
| 2026-05-08 18:53 | 51.50060 | 7.50870 | 34125 ft | 419 kts | 299° |
| 2026-05-08 18:53 | 51.52915 | 7.42791 | 34120 ft | 419 kts | 299° |
| 2026-05-08 18:54 | 51.55785 | 7.34655 | 34121 ft | 419 kts | 299° |
| 2026-05-08 18:54 | 51.58650 | 7.26503 | 34122 ft | 419 kts | 299° |
| 2026-05-08 18:55 | 51.62940 | 7.14258 | 34119 ft | 419 kts | 299° |
| 2026-05-08 18:56 | 51.65787 | 7.06085 | 34116 ft | 418 kts | 299° |
| 2026-05-08 18:56 | 51.68624 | 6.97906 | 34114 ft | 418 kts | 299° |
| 2026-05-08 18:57 | 51.71454 | 6.89714 | 34112 ft | 418 kts | 299° |
| 2026-05-08 18:57 | 51.74283 | 6.81525 | 34114 ft | 418 kts | 299° |
| 2026-05-08 18:58 | 51.77106 | 6.73337 | 34113 ft | 417 kts | 299° |
| 2026-05-08 18:58 | 51.79913 | 6.65142 | 34120 ft | 417 kts | 299° |
| 2026-05-08 18:59 | 51.82714 | 6.56946 | 34120 ft | 416 kts | 299° |
| 2026-05-08 18:59 | 51.85487 | 6.48815 | 34119 ft | 415 kts | 299° |
| 2026-05-08 19:00 | 51.88265 | 6.40630 | 34118 ft | 415 kts | 299° |
| 2026-05-08 19:00 | 51.91129 | 6.32525 | 34108 ft | 415 kts | 303° |
| 2026-05-08 19:01 | 51.94236 | 6.24597 | 34093 ft | 418 kts | 303° |
| 2026-05-08 19:01 | 51.97344 | 6.16613 | 34091 ft | 419 kts | 303° |
| 2026-05-08 19:02 | 52.00439 | 6.08580 | 34103 ft | 420 kts | 303° |
| 2026-05-08 19:02 | 52.03138 | 6.00209 | 34139 ft | 415 kts | 299° |
| 2026-05-08 19:03 | 52.05851 | 5.92002 | 34138 ft | 411 kts | 300° |
| 2026-05-08 19:03 | 52.08557 | 5.83914 | 34140 ft | 410 kts | 300° |
| 2026-05-08 19:04 | 52.11258 | 5.75693 | 34142 ft | 409 kts | 300° |
| 2026-05-08 19:04 | 52.13892 | 5.67563 | 34135 ft | 409 kts | 300° |
| 2026-05-08 19:05 | 52.16528 | 5.59377 | 34128 ft | 408 kts | 300° |
| 2026-05-08 19:05 | 52.19161 | 5.51197 | 34120 ft | 407 kts | 300° |
| 2026-05-08 19:06 | 52.21789 | 5.43031 | 34123 ft | 406 kts | 300° |
| 2026-05-08 19:06 | 52.24408 | 5.34880 | 34121 ft | 405 kts | 300° |
| 2026-05-08 19:07 | 52.27013 | 5.26725 | 34127 ft | 404 kts | 300° |
| 2026-05-08 19:07 | 52.29602 | 5.18580 | 34126 ft | 403 kts | 300° |
| 2026-05-08 19:08 | 52.32180 | 5.10461 | 34130 ft | 402 kts | 300° |
| 2026-05-08 19:08 | 52.34750 | 5.02341 | 34145 ft | 401 kts | 300° |
| 2026-05-08 19:09 | 52.37303 | 4.94233 | 34143 ft | 400 kts | 300° |
| 2026-05-08 19:09 | 52.39826 | 4.86186 | 34135 ft | 399 kts | 300° |
| 2026-05-08 19:10 | 52.42364 | 4.78105 | 34142 ft | 399 kts | 300° |
| 2026-05-08 19:10 | 52.44890 | 4.70025 | 34132 ft | 398 kts | 300° |
| 2026-05-08 19:11 | 52.47403 | 4.61945 | 34124 ft | 397 kts | 300° |
| 2026-05-08 19:11 | 52.49906 | 4.53863 | 34124 ft | 397 kts | 300° |
| 2026-05-08 19:12 | 52.52397 | 4.45785 | 34123 ft | 396 kts | 299° |
| 2026-05-08 19:12 | 52.54878 | 4.37707 | 34131 ft | 396 kts | 299° |
| 2026-05-08 19:13 | 52.57357 | 4.29632 | 34127 ft | 395 kts | 299° |
| 2026-05-08 19:13 | 52.59817 | 4.21620 | 34130 ft | 395 kts | 299° |
| 2026-05-08 19:14 | 52.62294 | 4.13496 | 34143 ft | 394 kts | 299° |
| 2026-05-08 19:14 | 52.64728 | 4.05477 | 34138 ft | 394 kts | 299° |
| 2026-05-08 19:15 | 52.67167 | 3.97410 | 34139 ft | 393 kts | 299° |
| 2026-05-08 19:15 | 52.69601 | 3.89344 | 34146 ft | 393 kts | 298° |
| 2026-05-08 19:16 | 52.72029 | 3.81278 | 34143 ft | 392 kts | 298° |
| 2026-05-08 19:16 | 52.74449 | 3.73219 | 34142 ft | 392 kts | 298° |
| 2026-05-08 19:17 | 52.76858 | 3.65156 | 34150 ft | 391 kts | 298° |
| 2026-05-08 19:17 | 52.79258 | 3.57089 | 34148 ft | 391 kts | 298° |
| 2026-05-08 19:18 | 52.81653 | 3.49027 | 34150 ft | 391 kts | 298° |
| 2026-05-08 19:18 | 52.84035 | 3.40961 | 34151 ft | 390 kts | 298° |
| 2026-05-08 19:19 | 52.86396 | 3.32945 | 34146 ft | 390 kts | 298° |
| 2026-05-08 19:19 | 52.88763 | 3.24877 | 34147 ft | 389 kts | 297° |
| 2026-05-08 19:20 | 52.91111 | 3.16802 | 34149 ft | 389 kts | 295° |
| 2026-05-08 19:20 | 52.92594 | 3.08148 | 34147 ft | 392 kts | 285° |
| 2026-05-08 19:21 | 52.93754 | 2.99323 | 34152 ft | 392 kts | 285° |
| 2026-05-08 19:21 | 52.94912 | 2.90505 | 34157 ft | 391 kts | 285° |
| 2026-05-08 19:22 | 52.96065 | 2.81688 | 34160 ft | 391 kts | 285° |
| 2026-05-08 19:22 | 52.97217 | 2.72883 | 34158 ft | 390 kts | 285° |
| 2026-05-08 19:23 | 52.98358 | 2.64079 | 34156 ft | 390 kts | 284° |
| 2026-05-08 19:23 | 52.99484 | 2.55273 | 34158 ft | 390 kts | 284° |
| 2026-05-08 19:24 | 53.00595 | 2.46476 | 34156 ft | 389 kts | 284° |
| 2026-05-08 19:24 | 53.01706 | 2.37680 | 34157 ft | 389 kts | 284° |
| 2026-05-08 19:25 | 53.02817 | 2.28893 | 34160 ft | 389 kts | 284° |
| 2026-05-08 19:25 | 53.03921 | 2.20106 | 34155 ft | 388 kts | 284° |
| 2026-05-08 19:26 | 53.05001 | 2.11383 | 34156 ft | 388 kts | 283° |
| 2026-05-08 19:26 | 53.06081 | 2.02602 | 34154 ft | 388 kts | 283° |
| 2026-05-08 19:27 | 53.07156 | 1.93819 | 34156 ft | 387 kts | 283° |
| 2026-05-08 19:27 | 53.08227 | 1.85043 | 34158 ft | 387 kts | 283° |
| 2026-05-08 19:28 | 53.09292 | 1.76266 | 34154 ft | 387 kts | 283° |
| 2026-05-08 19:28 | 53.10345 | 1.67487 | 34154 ft | 387 kts | 282° |
| 2026-05-08 19:29 | 53.11391 | 1.58709 | 34146 ft | 387 kts | 282° |
| 2026-05-08 19:29 | 53.12435 | 1.49935 | 34146 ft | 387 kts | 282° |
| 2026-05-08 19:30 | 53.13470 | 1.41147 | 34151 ft | 387 kts | 282° |
| 2026-05-08 19:30 | 53.14493 | 1.32361 | 34146 ft | 387 kts | 282° |
| 2026-05-08 19:31 | 53.15511 | 1.23565 | 34145 ft | 387 kts | 281° |
| 2026-05-08 19:31 | 53.16520 | 1.14826 | 34143 ft | 387 kts | 281° |
| 2026-05-08 19:32 | 53.17530 | 1.06025 | 34144 ft | 387 kts | 281° |
| 2026-05-08 19:32 | 53.18532 | 0.97211 | 34137 ft | 387 kts | 281° |
| 2026-05-08 19:33 | 53.19528 | 0.88390 | 34133 ft | 387 kts | 281° |
| 2026-05-08 19:33 | 53.20518 | 0.79566 | 34134 ft | 387 kts | 281° |
| 2026-05-08 19:34 | 53.21504 | 0.70742 | 34140 ft | 387 kts | 281° |
| 2026-05-08 19:34 | 53.22477 | 0.61907 | 34133 ft | 387 kts | 280° |
| 2026-05-08 19:35 | 53.23444 | 0.53065 | 34133 ft | 387 kts | 280° |
| 2026-05-08 19:35 | 53.24407 | 0.44219 | 34127 ft | 387 kts | 280° |
| 2026-05-08 19:36 | 53.25369 | 0.35374 | 34122 ft | 387 kts | 280° |
| 2026-05-08 19:36 | 53.26325 | 0.26530 | 34119 ft | 387 kts | 280° |
| 2026-05-08 19:37 | 53.27267 | 0.17678 | 34118 ft | 387 kts | 279° |
| 2026-05-08 19:37 | 53.28201 | 0.08829 | 34116 ft | 387 kts | 279° |
| 2026-05-08 19:38 | 53.29656 | 0.00203 | 34111 ft | 388 kts | 294° |
| 2026-05-08 19:38 | 53.32030 | -0.07841 | 34108 ft | 388 kts | 294° |
| 2026-05-08 19:39 | 53.34408 | -0.15952 | 34108 ft | 388 kts | 294° |
| 2026-05-08 19:39 | 53.36769 | -0.24090 | 34121 ft | 388 kts | 294° |
| 2026-05-08 19:40 | 53.39121 | -0.32235 | 34122 ft | 389 kts | 294° |
| 2026-05-08 19:40 | 53.41480 | -0.40384 | 34128 ft | 389 kts | 294° |
| 2026-05-08 19:41 | 53.43841 | -0.48531 | 34116 ft | 388 kts | 294° |
| 2026-05-08 19:41 | 53.46191 | -0.56689 | 34007 ft | 387 kts | 293° |
| 2026-05-08 19:41 | 53.47350 | -0.60724 | 33738 ft | 381 kts | 293° |
| 2026-05-08 19:42 | 53.48106 | -0.63370 | 33539 ft | 379 kts | 293° |
| 2026-05-08 19:42 | 53.49238 | -0.67348 | 33287 ft | 377 kts | 293° |
| 2026-05-08 19:42 | 53.50361 | -0.71309 | 33014 ft | 375 kts | 292° |
| 2026-05-08 19:42 | 53.51481 | -0.75263 | 32740 ft | 374 kts | 292° |
| 2026-05-08 19:43 | 53.52596 | -0.79199 | 32483 ft | 373 kts | 292° |
| 2026-05-08 19:43 | 53.53711 | -0.83125 | 32222 ft | 372 kts | 292° |
| 2026-05-08 19:43 | 53.54820 | -0.87038 | 31953 ft | 369 kts | 292° |
| 2026-05-08 19:43 | 53.55917 | -0.90918 | 31520 ft | 366 kts | 292° |
| 2026-05-08 19:44 | 53.57000 | -0.94767 | 31047 ft | 363 kts | 292° |
| 2026-05-08 19:44 | 53.58075 | -0.98600 | 30591 ft | 361 kts | 292° |
| 2026-05-08 19:44 | 53.59141 | -1.02405 | 30126 ft | 358 kts | 292° |
| 2026-05-08 19:44 | 53.60198 | -1.06181 | 29648 ft | 355 kts | 291° |
| 2026-05-08 19:45 | 53.61041 | -1.10029 | 29215 ft | 347 kts | 281° |
| 2026-05-08 19:45 | 53.61583 | -1.13954 | 28781 ft | 342 kts | 280° |
| 2026-05-08 19:45 | 53.62112 | -1.17833 | 28371 ft | 338 kts | 280° |
| 2026-05-08 19:45 | 53.62633 | -1.21670 | 27959 ft | 335 kts | 280° |
| 2026-05-08 19:46 | 53.63149 | -1.25475 | 27544 ft | 332 kts | 280° |
| 2026-05-08 19:46 | 53.63665 | -1.29269 | 26884 ft | 336 kts | 279° |
| 2026-05-08 19:46 | 53.64737 | -1.37184 | 25302 ft | 353 kts | 279° |
| 2026-05-08 19:47 | 53.65281 | -1.41196 | 24869 ft | 350 kts | 279° |
| 2026-05-08 19:47 | 53.65821 | -1.45184 | 24431 ft | 348 kts | 279° |
| 2026-05-08 19:47 | 53.66355 | -1.49150 | 23996 ft | 346 kts | 279° |
| 2026-05-08 19:47 | 53.66883 | -1.53097 | 23528 ft | 345 kts | 279° |
| 2026-05-08 19:48 | 53.67408 | -1.57026 | 23064 ft | 342 kts | 279° |
| 2026-05-08 19:48 | 53.67926 | -1.60925 | 22642 ft | 339 kts | 279° |
| 2026-05-08 19:48 | 53.68439 | -1.64792 | 22216 ft | 336 kts | 279° |
| 2026-05-08 19:48 | 53.68947 | -1.68632 | 21814 ft | 334 kts | 279° |
| 2026-05-08 19:49 | 53.69450 | -1.72443 | 21399 ft | 332 kts | 279° |
| 2026-05-08 19:49 | 53.69949 | -1.76226 | 21000 ft | 330 kts | 279° |
| 2026-05-08 19:49 | 53.70444 | -1.79997 | 20583 ft | 328 kts | 279° |
| 2026-05-08 19:49 | 53.70933 | -1.83738 | 20175 ft | 326 kts | 279° |
| 2026-05-08 19:50 | 53.71420 | -1.87468 | 19783 ft | 325 kts | 279° |
| 2026-05-08 19:50 | 53.71904 | -1.91185 | 19390 ft | 323 kts | 279° |
| 2026-05-08 19:50 | 53.72378 | -1.94839 | 19003 ft | 323 kts | 279° |
| 2026-05-08 19:50 | 53.72853 | -1.98535 | 18609 ft | 322 kts | 278° |
| 2026-05-08 19:51 | 53.73327 | -2.02215 | 18189 ft | 321 kts | 279° |
| 2026-05-08 19:51 | 53.73790 | -2.05891 | 17776 ft | 318 kts | 276° |
| 2026-05-08 19:51 | 53.73859 | -2.09574 | 17362 ft | 312 kts | 261° |
| 2026-05-08 19:51 | 53.73359 | -2.13096 | 16961 ft | 308 kts | 246° |
| 2026-05-08 19:52 | 53.72388 | -2.16290 | 16575 ft | 305 kts | 239° |
| 2026-05-08 19:52 | 53.71338 | -2.19395 | 16190 ft | 304 kts | 239° |
| 2026-05-08 19:52 | 53.70297 | -2.22497 | 15796 ft | 304 kts | 239° |
| 2026-05-08 19:52 | 53.69259 | -2.25595 | 15413 ft | 303 kts | 239° |
| 2026-05-08 19:53 | 53.68220 | -2.28688 | 15030 ft | 303 kts | 239° |
| 2026-05-08 19:53 | 53.67181 | -2.31778 | 14649 ft | 303 kts | 240° |
| 2026-05-08 19:53 | 53.66140 | -2.34862 | 14266 ft | 302 kts | 239° |
| 2026-05-08 19:53 | 53.65097 | -2.37943 | 13880 ft | 303 kts | 239° |
| 2026-05-08 19:54 | 53.64054 | -2.41021 | 13460 ft | 302 kts | 239° |
| 2026-05-08 19:54 | 53.63014 | -2.44086 | 13065 ft | 301 kts | 239° |
| 2026-05-08 19:54 | 53.61981 | -2.47135 | 12673 ft | 299 kts | 239° |
| 2026-05-08 19:54 | 53.60966 | -2.50130 | 12293 ft | 298 kts | 239° |
| 2026-05-08 19:55 | 53.59938 | -2.53155 | 11912 ft | 297 kts | 239° |
| 2026-05-08 19:55 | 53.58914 | -2.56168 | 11515 ft | 296 kts | 239° |
| 2026-05-08 19:55 | 53.57890 | -2.59176 | 11121 ft | 296 kts | 239° |
| 2026-05-08 19:55 | 53.56868 | -2.62171 | 10723 ft | 295 kts | 239° |
| 2026-05-08 19:56 | 53.55857 | -2.65129 | 10558 ft | 287 kts | 239° |
| 2026-05-08 19:56 | 53.54873 | -2.68014 | 10255 ft | 284 kts | 239° |
| 2026-05-08 19:56 | 53.53890 | -2.70891 | 9859 ft | 283 kts | 239° |
| 2026-05-08 19:56 | 53.52909 | -2.73755 | 9470 ft | 282 kts | 239° |
| 2026-05-08 19:57 | 53.51931 | -2.76602 | 9095 ft | 281 kts | 238° |
| 2026-05-08 19:57 | 53.50962 | -2.79422 | 8526 ft | 277 kts | 238° |
| 2026-05-08 19:57 | 53.50000 | -2.82220 | 7860 ft | 276 kts | 238° |
| 2026-05-08 19:57 | 53.49053 | -2.84972 | 7370 ft | 268 kts | 238° |
| 2026-05-08 19:58 | 53.48137 | -2.87627 | 6957 ft | 258 kts | 238° |
| 2026-05-08 19:58 | 53.47252 | -2.90191 | 6557 ft | 249 kts | 238° |
| 2026-05-08 19:58 | 53.46405 | -2.92644 | 6156 ft | 245 kts | 237° |
| 2026-05-08 19:58 | 53.45548 | -2.95122 | 5766 ft | 245 kts | 237° |
| 2026-05-08 19:59 | 53.44693 | -2.97593 | 5377 ft | 245 kts | 237° |
| 2026-05-08 19:59 | 53.43846 | -3.00033 | 5062 ft | 237 kts | 237° |
| 2026-05-08 19:59 | 53.43023 | -3.02401 | 4759 ft | 234 kts | 237° |
| 2026-05-08 19:59 | 53.42219 | -3.04716 | 4445 ft | 226 kts | 237° |
| 2026-05-08 20:00 | 53.41440 | -3.06961 | 4141 ft | 220 kts | 238° |
| 2026-05-08 20:00 | 53.40680 | -3.09147 | 3839 ft | 214 kts | 238° |
| 2026-05-08 20:00 | 53.39843 | -3.11154 | 3532 ft | 207 kts | 222° |
| 2026-05-08 20:00 | 53.38718 | -3.12531 | 3364 ft | 196 kts | 204° |
| 2026-05-08 20:01 | 53.37455 | -3.13197 | 3160 ft | 187 kts | 186° |
| 2026-05-08 20:01 | 53.36179 | -3.13226 | 2948 ft | 185 kts | 175° |
| 2026-05-08 20:01 | 53.34912 | -3.12975 | 2742 ft | 181 kts | 162° |
| 2026-05-08 20:01 | 53.33801 | -3.12088 | 2569 ft | 169 kts | 142° |
| 2026-05-08 20:02 | 53.32990 | -3.10733 | 2510 ft | 162 kts | 124° |
| 2026-05-08 20:02 | 53.32489 | -3.09065 | 2510 ft | 161 kts | 106° |
| 2026-05-08 20:02 | 53.32320 | -3.07234 | 2438 ft | 159 kts | 88° |
| 2026-05-08 20:02 | 53.32396 | -3.05488 | 2288 ft | 148 kts | 85° |
| 2026-05-08 20:03 | 53.32476 | -3.03823 | 2126 ft | 141 kts | 85° |
| 2026-05-08 20:03 | 53.32553 | -3.02217 | 1936 ft | 138 kts | 85° |
| 2026-05-08 20:03 | 53.32630 | -3.00604 | 1753 ft | 136 kts | 84° |
| 2026-05-08 20:03 | 53.32704 | -2.99049 | 1563 ft | 136 kts | 84° |
| 2026-05-08 20:04 | 53.32779 | -2.97466 | 1385 ft | 136 kts | 84° |
| 2026-05-08 20:04 | 53.32853 | -2.95886 | 1201 ft | 136 kts | 84° |
| 2026-05-08 20:04 | 53.32928 | -2.94303 | 1016 ft | 136 kts | 84° |
| 2026-05-08 20:04 | 53.33002 | -2.92716 | 818 ft | 137 kts | 83° |
| 2026-05-08 20:05 | 53.33079 | -2.91109 | 649 ft | 139 kts | 83° |
| 2026-05-08 20:05 | 53.33155 | -2.89488 | 470 ft | 140 kts | 83° |
| 2026-05-08 20:05 | 53.33229 | -2.87860 | 275 ft | 140 kts | 83° |
| 2026-05-08 20:05 | 53.33304 | -2.86234 | 104 ft | 139 kts | 83° |
| 2026-05-08 20:06 | 53.33370 | -2.84829 | 92 ft | 97 kts | 85° |
| 2026-05-08 20:06 | 53.33408 | -2.83992 | 90 ft | 46 kts | 85° |
| 2026-05-08 20:06 | 53.33422 | -2.83686 | 90 ft | 12 kts | 85° |
| 2026-05-08 20:06 | 53.33472 | -2.83627 | 91 ft | 10 kts | 355° |
| 2026-05-08 20:07 | 53.33544 | -2.83635 | 91 ft | 11 kts | 356° |
| 2026-05-08 20:07 | 53.33588 | -2.83722 | 90 ft | 11 kts | 278° |
| 2026-05-08 20:07 | 53.33583 | -2.83839 | 91 ft | 10 kts | 264° |
| 2026-05-08 20:07 | 53.33576 | -2.83956 | 89 ft | 11 kts | 265° |
| 2026-05-08 20:08 | 53.33570 | -2.84092 | 90 ft | 13 kts | 266° |
| 2026-05-08 20:08 | 53.33564 | -2.84250 | 89 ft | 15 kts | 266° |
| 2026-05-08 20:08 | 53.33555 | -2.84431 | 89 ft | 17 kts | 265° |
| 2026-05-08 20:08 | 53.33546 | -2.84635 | 89 ft | 19 kts | 265° |
| 2026-05-08 20:09 | 53.33535 | -2.84859 | 91 ft | 20 kts | 265° |
| 2026-05-08 20:09 | 53.33524 | -2.85101 | 92 ft | 21 kts | 265° |
| 2026-05-08 20:09 | 53.33513 | -2.85344 | 89 ft | 18 kts | 265° |
| 2026-05-08 20:09 | 53.33510 | -2.85475 | 89 ft | 9 kts | 285° |
| 2026-05-08 20:10 | 53.33564 | -2.85511 | 91 ft | 9 kts | 355° |
| 2026-05-08 20:10 | 53.33621 | -2.85509 | 90 ft | 8 kts | 358° |
| 2026-05-08 20:10 | 53.33660 | -2.85514 | 91 ft | 3 kts | 356° |
| 2026-05-08 20:10 | 53.33666 | -2.85514 | 90 ft | 0 kts | 356° |